sensor_id;sensor_type;location;lat;lon;timestamp;pressure;altitude;pressure_sealevel;temperature
48362;BMP280;34510;51.888;5.670;2022-07-19T00:00:33;101810.31;;;23.70
48362;BMP280;34510;51.888;5.670;2022-07-19T00:02:37;101818.81;;;23.70
48362;BMP280;34510;51.888;5.670;2022-07-19T00:04:39;101808.53;;;23.64
48362;BMP280;34510;51.888;5.670;2022-07-19T00:06:41;101810.25;;;23.65
48362;BMP280;34510;51.888;5.670;2022-07-19T00:08:42;101806.84;;;23.63
48362;BMP280;34510;51.888;5.670;2022-07-19T00:10:44;101807.09;;;23.61
48362;BMP280;34510;51.888;5.670;2022-07-19T00:12:46;101803.09;;;23.57
48362;BMP280;34510;51.888;5.670;2022-07-19T00:14:48;101799.31;;;23.52
48362;BMP280;34510;51.888;5.670;2022-07-19T00:16:50;101800.72;;;23.49
48362;BMP280;34510;51.888;5.670;2022-07-19T00:18:52;101797.28;;;23.47
48362;BMP280;34510;51.888;5.670;2022-07-19T00:20:54;101800.13;;;23.47
48362;BMP280;34510;51.888;5.670;2022-07-19T00:22:55;101804.03;;;23.41
48362;BMP280;34510;51.888;5.670;2022-07-19T00:24:57;101796.38;;;23.42
48362;BMP280;34510;51.888;5.670;2022-07-19T00:26:59;101791.91;;;23.46
48362;BMP280;34510;51.888;5.670;2022-07-19T00:29:01;101797.75;;;23.39
48362;BMP280;34510;51.888;5.670;2022-07-19T00:31:04;101792.06;;;23.39
48362;BMP280;34510;51.888;5.670;2022-07-19T00:33:06;101798.53;;;23.34
48362;BMP280;34510;51.888;5.670;2022-07-19T00:35:11;101792.03;;;23.34
48362;BMP280;34510;51.888;5.670;2022-07-19T00:37:13;101791.06;;;23.23
48362;BMP280;34510;51.888;5.670;2022-07-19T00:39:15;101786.78;;;23.21
48362;BMP280;34510;51.888;5.670;2022-07-19T00:41:16;101786.19;;;23.19
48362;BMP280;34510;51.888;5.670;2022-07-19T00:43:18;101786.25;;;23.24
48362;BMP280;34510;51.888;5.670;2022-07-19T00:45:20;101797.88;;;23.27
48362;BMP280;34510;51.888;5.670;2022-07-19T00:47:22;101788.28;;;23.28
48362;BMP280;34510;51.888;5.670;2022-07-19T00:49:24;101792.22;;;23.27
48362;BMP280;34510;51.888;5.670;2022-07-19T00:51:26;101788.47;;;23.22
48362;BMP280;34510;51.888;5.670;2022-07-19T00:53:29;101787.25;;;23.13
48362;BMP280;34510;51.888;5.670;2022-07-19T00:55:33;101797.97;;;23.11
48362;BMP280;34510;51.888;5.670;2022-07-19T00:57:37;101794.53;;;23.08
48362;BMP280;34510;51.888;5.670;2022-07-19T00:59:40;101795.94;;;23.06
48362;BMP280;34510;51.888;5.670;2022-07-19T01:01:45;101798.22;;;23.09
48362;BMP280;34510;51.888;5.670;2022-07-19T01:03:47;101801.84;;;23.04
48362;BMP280;34510;51.888;5.670;2022-07-19T01:05:49;101797.84;;;23.00
48362;BMP280;34510;51.888;5.670;2022-07-19T01:07:52;101797.78;;;22.95
48362;BMP280;34510;51.888;5.670;2022-07-19T01:09:54;101795.47;;;22.92
48362;BMP280;34510;51.888;5.670;2022-07-19T01:11:56;101798.56;;;22.91
48362;BMP280;34510;51.888;5.670;2022-07-19T01:13:58;101803.38;;;22.90
48362;BMP280;34510;51.888;5.670;2022-07-19T01:16:00;101795.94;;;22.84
48362;BMP280;34510;51.888;5.670;2022-07-19T01:18:02;101806.78;;;22.75
48362;BMP280;34510;51.888;5.670;2022-07-19T01:20:04;101806.97;;;22.69
48362;BMP280;34510;51.888;5.670;2022-07-19T01:22:06;101803.09;;;22.75
48362;BMP280;34510;51.888;5.670;2022-07-19T01:24:08;101805.69;;;22.60
48362;BMP280;34510;51.888;5.670;2022-07-19T01:26:10;101804.50;;;22.56
48362;BMP280;34510;51.888;5.670;2022-07-19T01:28:11;101804.19;;;22.52
48362;BMP280;34510;51.888;5.670;2022-07-19T01:30:20;101792.28;;;22.50
48362;BMP280;34510;51.888;5.670;2022-07-19T01:32:22;101800.41;;;22.46
48362;BMP280;34510;51.888;5.670;2022-07-19T01:34:24;101803.50;;;22.45
48362;BMP280;34510;51.888;5.670;2022-07-19T01:36:26;101798.25;;;22.54
48362;BMP280;34510;51.888;5.670;2022-07-19T01:38:27;101805.63;;;22.55
48362;BMP280;34510;51.888;5.670;2022-07-19T01:40:29;101808.44;;;22.55
48362;BMP280;34510;51.888;5.670;2022-07-19T01:42:31;101807.41;;;22.61
48362;BMP280;34510;51.888;5.670;2022-07-19T01:44:32;101796.50;;;22.69
48362;BMP280;34510;51.888;5.670;2022-07-19T01:46:34;101812.09;;;22.72
48362;BMP280;34510;51.888;5.670;2022-07-19T01:48:36;101794.53;;;22.70
48362;BMP280;34510;51.888;5.670;2022-07-19T01:50:38;101811.16;;;22.66
48362;BMP280;34510;51.888;5.670;2022-07-19T01:52:40;101806.88;;;22.64
48362;BMP280;34510;51.888;5.670;2022-07-19T01:54:49;101800.56;;;22.57
48362;BMP280;34510;51.888;5.670;2022-07-19T01:56:51;101795.09;;;22.50
48362;BMP280;34510;51.888;5.670;2022-07-19T01:58:53;101795.88;;;22.45
48362;BMP280;34510;51.888;5.670;2022-07-19T02:00:55;101798.19;;;22.49
48362;BMP280;34510;51.888;5.670;2022-07-19T02:02:57;101795.97;;;22.51
48362;BMP280;34510;51.888;5.670;2022-07-19T02:04:58;101795.28;;;22.43
48362;BMP280;34510;51.888;5.670;2022-07-19T02:07:01;101796.91;;;22.39
48362;BMP280;34510;51.888;5.670;2022-07-19T02:09:03;101785.63;;;22.39
48362;BMP280;34510;51.888;5.670;2022-07-19T02:11:04;101783.91;;;22.38
48362;BMP280;34510;51.888;5.670;2022-07-19T02:13:26;101789.22;;;22.35
48362;BMP280;34510;51.888;5.670;2022-07-19T02:15:28;101786.13;;;22.36
48362;BMP280;34510;51.888;5.670;2022-07-19T02:17:30;101787.44;;;22.29
48362;BMP280;34510;51.888;5.670;2022-07-19T02:19:32;101787.00;;;22.20
48362;BMP280;34510;51.888;5.670;2022-07-19T02:21:35;101779.44;;;22.09
48362;BMP280;34510;51.888;5.670;2022-07-19T02:23:37;101785.22;;;22.14
48362;BMP280;34510;51.888;5.670;2022-07-19T02:25:39;101778.97;;;22.12
48362;BMP280;34510;51.888;5.670;2022-07-19T02:27:41;101780.69;;;22.13
48362;BMP280;34510;51.888;5.670;2022-07-19T02:29:43;101774.91;;;22.08
48362;BMP280;34510;51.888;5.670;2022-07-19T02:31:44;101778.09;;;22.11
48362;BMP280;34510;51.888;5.670;2022-07-19T02:33:46;101777.13;;;22.06
48362;BMP280;34510;51.888;5.670;2022-07-19T02:35:48;101773.09;;;22.02
48362;BMP280;34510;51.888;5.670;2022-07-19T02:37:50;101772.75;;;21.98
48362;BMP280;34510;51.888;5.670;2022-07-19T02:39:51;101771.28;;;21.96
48362;BMP280;34510;51.888;5.670;2022-07-19T02:41:53;101767.94;;;21.99
48362;BMP280;34510;51.888;5.670;2022-07-19T02:43:55;101761.03;;;21.90
48362;BMP280;34510;51.888;5.670;2022-07-19T02:45:57;101769.50;;;21.90
48362;BMP280;34510;51.888;5.670;2022-07-19T02:47:58;101763.41;;;21.98
48362;BMP280;34510;51.888;5.670;2022-07-19T02:50:02;101756.56;;;21.94
48362;BMP280;34510;51.888;5.670;2022-07-19T02:52:04;101765.03;;;21.94
48362;BMP280;34510;51.888;5.670;2022-07-19T02:54:06;101754.25;;;21.91
48362;BMP280;34510;51.888;5.670;2022-07-19T02:56:07;101761.63;;;21.92
48362;BMP280;34510;51.888;5.670;2022-07-19T02:58:09;101766.94;;;21.88
48362;BMP280;34510;51.888;5.670;2022-07-19T03:00:11;101767.44;;;21.85
48362;BMP280;34510;51.888;5.670;2022-07-19T03:02:14;101759.22;;;21.83
48362;BMP280;34510;51.888;5.670;2022-07-19T03:04:16;101760.84;;;21.79
48362;BMP280;34510;51.888;5.670;2022-07-19T03:06:18;101761.09;;;21.78
48362;BMP280;34510;51.888;5.670;2022-07-19T03:08:20;101764.78;;;21.78
48362;BMP280;34510;51.888;5.670;2022-07-19T03:10:21;101758.97;;;21.68
48362;BMP280;34510;51.888;5.670;2022-07-19T03:12:23;101760.59;;;21.64
48362;BMP280;34510;51.888;5.670;2022-07-19T03:14:25;101765.03;;;21.60
48362;BMP280;34510;51.888;5.670;2022-07-19T03:16:29;101761.09;;;21.61
48362;BMP280;34510;51.888;5.670;2022-07-19T03:18:31;101764.00;;;21.66
48362;BMP280;34510;51.888;5.670;2022-07-19T03:20:33;101757.16;;;21.62
48362;BMP280;34510;51.888;5.670;2022-07-19T03:22:35;101758.00;;;21.63
48362;BMP280;34510;51.888;5.670;2022-07-19T03:24:37;101761.09;;;21.61
48362;BMP280;34510;51.888;5.670;2022-07-19T03:26:39;101757.16;;;21.62
48362;BMP280;34510;51.888;5.670;2022-07-19T03:28:40;101751.75;;;21.61
48362;BMP280;34510;51.888;5.670;2022-07-19T03:30:42;101756.03;;;21.63
48362;BMP280;34510;51.888;5.670;2022-07-19T03:32:46;101759.22;;;21.67
48362;BMP280;34510;51.888;5.670;2022-07-19T03:34:48;101752.13;;;21.64
48362;BMP280;34510;51.888;5.670;2022-07-19T03:36:49;101757.16;;;21.62
48362;BMP280;34510;51.888;5.670;2022-07-19T03:38:51;101754.25;;;21.57
48362;BMP280;34510;51.888;5.670;2022-07-19T03:40:53;101765.28;;;21.59
48362;BMP280;34510;51.888;5.670;2022-07-19T03:42:54;101756.31;;;21.62
48362;BMP280;34510;51.888;5.670;2022-07-19T03:44:56;101760.75;;;21.58
48362;BMP280;34510;51.888;5.670;2022-07-19T03:46:58;101762.63;;;21.52
48362;BMP280;34510;51.888;5.670;2022-07-19T03:49:00;101753.72;;;21.60
48362;BMP280;34510;51.888;5.670;2022-07-19T03:51:02;101761.75;;;21.51
48362;BMP280;34510;51.888;5.670;2022-07-19T03:53:04;101763.13;;;21.49
48362;BMP280;34510;51.888;5.670;2022-07-19T03:55:05;101767.66;;;21.50
48362;BMP280;34510;51.888;5.670;2022-07-19T03:57:07;101759.69;;;21.47
48362;BMP280;34510;51.888;5.670;2022-07-19T03:59:09;101757.47;;;21.49
48362;BMP280;34510;51.888;5.670;2022-07-19T04:01:11;101756.47;;;21.55
48362;BMP280;34510;51.888;5.670;2022-07-19T04:03:13;101760.59;;;21.64
48362;BMP280;34510;51.888;5.670;2022-07-19T04:05:16;101762.72;;;21.57
48362;BMP280;34510;51.888;5.670;2022-07-19T04:07:17;101761.00;;;21.56
48362;BMP280;34510;51.888;5.670;2022-07-19T04:09:19;101758.34;;;21.66
48362;BMP280;34510;51.888;5.670;2022-07-19T04:11:21;101760.59;;;21.64
48362;BMP280;34510;51.888;5.670;2022-07-19T04:13:23;101759.38;;;21.60
48362;BMP280;34510;51.888;5.670;2022-07-19T04:15:24;101755.94;;;21.58
48362;BMP280;34510;51.888;5.670;2022-07-19T04:17:27;101761.59;;;21.58
48362;BMP280;34510;51.888;5.670;2022-07-19T04:19:29;101765.03;;;21.60
48362;BMP280;34510;51.888;5.670;2022-07-19T04:21:30;101754.44;;;21.67
48362;BMP280;34510;51.888;5.670;2022-07-19T04:23:32;101748.44;;;21.64
48362;BMP280;34510;51.888;5.670;2022-07-19T04:25:34;101757.34;;;21.72
48362;BMP280;34510;51.888;5.670;2022-07-19T04:27:36;101758.09;;;21.68
48362;BMP280;34510;51.888;5.670;2022-07-19T04:29:38;101759.47;;;21.65
48362;BMP280;34510;51.888;5.670;2022-07-19T04:31:40;101758.69;;;21.70
48362;BMP280;34510;51.888;5.670;2022-07-19T04:33:42;101767.44;;;21.68
48362;BMP280;34510;51.888;5.670;2022-07-19T04:35:44;101758.44;;;21.71
48362;BMP280;34510;51.888;5.670;2022-07-19T04:37:46;101755.47;;;21.78
48362;BMP280;34510;51.888;5.670;2022-07-19T04:39:48;101758.88;;;21.80
48362;BMP280;34510;51.888;5.670;2022-07-19T04:41:50;101762.56;;;21.80
48362;BMP280;34510;51.888;5.670;2022-07-19T04:43:51;101753.50;;;21.78
48362;BMP280;34510;51.888;5.670;2022-07-19T04:45:53;101753.06;;;21.87
48362;BMP280;34510;51.888;5.670;2022-07-19T04:47:55;101763.75;;;21.84
48362;BMP280;34510;51.888;5.670;2022-07-19T04:49:57;101754.78;;;21.88
48362;BMP280;34510;51.888;5.670;2022-07-19T04:51:59;101756.47;;;21.89
48362;BMP280;34510;51.888;5.670;2022-07-19T04:54:01;101765.03;;;21.94
48362;BMP280;34510;51.888;5.670;2022-07-19T04:56:02;101768.03;;;21.87
48362;BMP280;34510;51.888;5.670;2022-07-19T04:58:04;101757.34;;;21.89
48362;BMP280;34510;51.888;5.670;2022-07-19T05:00:09;101759.72;;;21.97
48362;BMP280;34510;51.888;5.670;2022-07-19T05:02:12;101754.59;;;21.94
48362;BMP280;34510;51.888;5.670;2022-07-19T05:04:14;101757.38;;;22.06
48362;BMP280;34510;51.888;5.670;2022-07-19T05:06:15;101756.84;;;22.09
48362;BMP280;34510;51.888;5.670;2022-07-19T05:08:17;101761.16;;;22.11
48362;BMP280;34510;51.888;5.670;2022-07-19T05:10:19;101754.88;;;22.09
48362;BMP280;34510;51.888;5.670;2022-07-19T05:12:21;101753.03;;;22.15
48362;BMP280;34510;51.888;5.670;2022-07-19T05:14:23;101756.19;;;22.19
48362;BMP280;34510;51.888;5.670;2022-07-19T05:16:24;101756.44;;;22.17
48362;BMP280;34510;51.888;5.670;2022-07-19T05:18:26;101759.78;;;22.14
48362;BMP280;34510;51.888;5.670;2022-07-19T05:20:28;101751.19;;;22.09
48362;BMP280;34510;51.888;5.670;2022-07-19T05:22:30;101754.81;;;22.21
48362;BMP280;34510;51.888;5.670;2022-07-19T05:24:31;101758.84;;;22.25
48362;BMP280;34510;51.888;5.670;2022-07-19T05:26:33;101754.13;;;22.31
48362;BMP280;34510;51.888;5.670;2022-07-19T05:28:36;101743.34;;;22.28
48362;BMP280;34510;51.888;5.670;2022-07-19T05:30:38;101747.75;;;22.40
48362;BMP280;34510;51.888;5.670;2022-07-19T05:32:40;101748.44;;;22.48
48362;BMP280;34510;51.888;5.670;2022-07-19T05:34:42;101745.47;;;22.59
48362;BMP280;34510;51.888;5.670;2022-07-19T05:36:44;101743.59;;;22.65
48362;BMP280;34510;51.888;5.670;2022-07-19T05:38:45;101748.38;;;22.81
48362;BMP280;34510;51.888;5.670;2022-07-19T05:40:47;101751.81;;;22.83
48362;BMP280;34510;51.888;5.670;2022-07-19T05:42:49;101749.44;;;22.97
48362;BMP280;34510;51.888;5.670;2022-07-19T05:44:51;101749.22;;;23.03
48362;BMP280;34510;51.888;5.670;2022-07-19T05:46:53;101744.53;;;23.14
48362;BMP280;34510;51.888;5.670;2022-07-19T05:48:55;101744.91;;;23.23
48362;BMP280;34510;51.888;5.670;2022-07-19T05:50:58;101746.97;;;23.27
48362;BMP280;34510;51.888;5.670;2022-07-19T05:52:59;101750.75;;;23.38
48362;BMP280;34510;51.888;5.670;2022-07-19T05:55:01;101749.63;;;23.39
48362;BMP280;34510;51.888;5.670;2022-07-19T05:57:03;101749.34;;;23.40
48362;BMP280;34510;51.888;5.670;2022-07-19T05:59:05;101745.50;;;23.47
48362;BMP280;34510;51.888;5.670;2022-07-19T06:01:07;101743.16;;;23.65
48362;BMP280;34510;51.888;5.670;2022-07-19T06:03:21;101739.84;;;23.74
48362;BMP280;34510;51.888;5.670;2022-07-19T06:05:25;101752.09;;;23.84
48362;BMP280;34510;51.888;5.670;2022-07-19T06:07:27;101750.75;;;23.92
48362;BMP280;34510;51.888;5.670;2022-07-19T06:09:29;101743.91;;;23.88
48362;BMP280;34510;51.888;5.670;2022-07-19T06:11:31;101746.28;;;24.01
48362;BMP280;34510;51.888;5.670;2022-07-19T06:13:33;101740.31;;;24.29
48362;BMP280;34510;51.888;5.670;2022-07-19T06:15:34;101736.53;;;24.56
48362;BMP280;34510;51.888;5.670;2022-07-19T06:17:37;101730.28;;;24.59
48362;BMP280;34510;51.888;5.670;2022-07-19T06:19:39;101733.16;;;24.64
48362;BMP280;34510;51.888;5.670;2022-07-19T06:21:41;101725.31;;;24.76
48362;BMP280;34510;51.888;5.670;2022-07-19T06:23:43;101722.59;;;25.02
48362;BMP280;34510;51.888;5.670;2022-07-19T06:25:45;101735.69;;;25.13
48362;BMP280;34510;51.888;5.670;2022-07-19T06:27:46;101735.78;;;25.43
48362;BMP280;34510;51.888;5.670;2022-07-19T06:29:48;101728.47;;;25.78
48362;BMP280;34510;51.888;5.670;2022-07-19T06:31:50;101740.41;;;25.95
48362;BMP280;34510;51.888;5.670;2022-07-19T06:33:52;101732.97;;;25.58
48362;BMP280;34510;51.888;5.670;2022-07-19T06:35:54;101735.16;;;25.26
48362;BMP280;34510;51.888;5.670;2022-07-19T06:37:56;101728.34;;;25.32
48362;BMP280;34510;51.888;5.670;2022-07-19T06:39:57;101728.97;;;25.39
48362;BMP280;34510;51.888;5.670;2022-07-19T06:41:59;101730.13;;;25.48
48362;BMP280;34510;51.888;5.670;2022-07-19T06:44:01;101728.13;;;25.59
48362;BMP280;34510;51.888;5.670;2022-07-19T06:46:03;101731.25;;;25.57
48362;BMP280;34510;51.888;5.670;2022-07-19T06:48:05;101730.97;;;25.49
48362;BMP280;34510;51.888;5.670;2022-07-19T06:50:07;101726.47;;;25.83
48362;BMP280;34510;51.888;5.670;2022-07-19T06:52:29;101729.03;;;26.15
48362;BMP280;34510;51.888;5.670;2022-07-19T06:54:31;101725.94;;;26.12
48362;BMP280;34510;51.888;5.670;2022-07-19T06:56:32;101723.66;;;26.14
48362;BMP280;34510;51.888;5.670;2022-07-19T06:58:34;101729.59;;;26.38
48362;BMP280;34510;51.888;5.670;2022-07-19T07:00:42;101721.63;;;26.25
48362;BMP280;34510;51.888;5.670;2022-07-19T07:02:44;101725.59;;;26.49
48362;BMP280;34510;51.888;5.670;2022-07-19T07:04:46;101724.41;;;26.65
48362;BMP280;34510;51.888;5.670;2022-07-19T07:06:48;101723.28;;;26.61
48362;BMP280;34510;51.888;5.670;2022-07-19T07:08:49;101727.25;;;26.75
48362;BMP280;34510;51.888;5.670;2022-07-19T07:10:51;101724.94;;;26.82
48362;BMP280;34510;51.888;5.670;2022-07-19T07:12:53;101718.06;;;26.89
48362;BMP280;34510;51.888;5.670;2022-07-19T07:14:55;101719.81;;;27.44
48362;BMP280;34510;51.888;5.670;2022-07-19T07:16:57;101711.00;;;27.40
48362;BMP280;34510;51.888;5.670;2022-07-19T07:18:58;101711.03;;;27.35
48362;BMP280;34510;51.888;5.670;2022-07-19T07:21:00;101718.78;;;27.69
48362;BMP280;34510;51.888;5.670;2022-07-19T07:23:02;101715.94;;;27.69
48362;BMP280;34510;51.888;5.670;2022-07-19T07:25:05;101725.47;;;27.88
48362;BMP280;34510;51.888;5.670;2022-07-19T07:27:09;101718.06;;;27.87
48362;BMP280;34510;51.888;5.670;2022-07-19T07:29:12;101721.13;;;27.96
48362;BMP280;34510;51.888;5.670;2022-07-19T07:31:13;101712.09;;;28.18
48362;BMP280;34510;51.888;5.670;2022-07-19T07:33:15;101708.94;;;28.24
48362;BMP280;34510;51.888;5.670;2022-07-19T07:35:17;101706.63;;;28.26
48362;BMP280;34510;51.888;5.670;2022-07-19T07:37:19;101711.63;;;28.39
48362;BMP280;34510;51.888;5.670;2022-07-19T07:39:21;101711.38;;;28.60
48362;BMP280;34510;51.888;5.670;2022-07-19T07:41:23;101715.31;;;28.69
48362;BMP280;34510;51.888;5.670;2022-07-19T07:43:44;101703.94;;;28.64
48362;BMP280;34510;51.888;5.670;2022-07-19T07:45:46;101711.84;;;28.72
48362;BMP280;34510;51.888;5.670;2022-07-19T07:47:48;101712.53;;;28.59
48362;BMP280;34510;51.888;5.670;2022-07-19T07:49:51;101711.69;;;28.58
48362;BMP280;34510;51.888;5.670;2022-07-19T07:51:53;101714.94;;;28.76
48362;BMP280;34510;51.888;5.670;2022-07-19T07:53:55;101706.97;;;28.96
48362;BMP280;34510;51.888;5.670;2022-07-19T07:55:57;101704.75;;;29.12
48362;BMP280;34510;51.888;5.670;2022-07-19T07:58:08;101702.25;;;29.29
48362;BMP280;34510;51.888;5.670;2022-07-19T08:00:10;101698.88;;;29.65
48362;BMP280;34510;51.888;5.670;2022-07-19T08:02:15;101702.50;;;29.52
48362;BMP280;34510;51.888;5.670;2022-07-19T08:04:17;101696.00;;;29.65
48362;BMP280;34510;51.888;5.670;2022-07-19T08:06:19;101696.09;;;29.60
48362;BMP280;34510;51.888;5.670;2022-07-19T08:08:20;101696.41;;;29.58
48362;BMP280;34510;51.888;5.670;2022-07-19T08:10:25;101689.91;;;29.72
48362;BMP280;34510;51.888;5.670;2022-07-19T08:12:27;101691.38;;;29.69
48362;BMP280;34510;51.888;5.670;2022-07-19T08:14:28;101693.69;;;29.67
48362;BMP280;34510;51.888;5.670;2022-07-19T08:16:30;101698.44;;;30.09
48362;BMP280;34510;51.888;5.670;2022-07-19T08:18:33;101692.63;;;30.28
48362;BMP280;34510;51.888;5.670;2022-07-19T08:20:38;101695.88;;;30.08
48362;BMP280;34510;51.888;5.670;2022-07-19T08:22:41;101689.88;;;30.23
48362;BMP280;34510;51.888;5.670;2022-07-19T08:24:42;101693.50;;;30.42
48362;BMP280;34510;51.888;5.670;2022-07-19T08:26:44;101693.69;;;30.32
48362;BMP280;34510;51.888;5.670;2022-07-19T08:28:46;101689.47;;;30.43
48362;BMP280;34510;51.888;5.670;2022-07-19T08:30:49;101696.53;;;30.65
48362;BMP280;34510;51.888;5.670;2022-07-19T08:33:11;101688.91;;;30.74
48362;BMP280;34510;51.888;5.670;2022-07-19T08:35:12;101701.31;;;30.83
48362;BMP280;34510;51.888;5.670;2022-07-19T08:37:14;101695.91;;;30.68
48362;BMP280;34510;51.888;5.670;2022-07-19T08:39:16;101687.44;;;30.63
48362;BMP280;34510;51.888;5.670;2022-07-19T08:41:19;101690.81;;;30.65
48362;BMP280;34510;51.888;5.670;2022-07-19T08:43:21;101689.09;;;30.77
48362;BMP280;34510;51.888;5.670;2022-07-19T08:45:25;101684.66;;;30.85
48362;BMP280;34510;51.888;5.670;2022-07-19T08:47:29;101691.41;;;31.16
48362;BMP280;34510;51.888;5.670;2022-07-19T08:49:32;101688.09;;;31.09
48362;BMP280;34510;51.888;5.670;2022-07-19T08:51:34;101688.63;;;31.11
48362;BMP280;34510;51.888;5.670;2022-07-19T08:53:36;101675.69;;;31.14
48362;BMP280;34510;51.888;5.670;2022-07-19T08:55:42;101670.38;;;31.35
48362;BMP280;34510;51.888;5.670;2022-07-19T08:57:43;101679.75;;;31.27
48362;BMP280;34510;51.888;5.670;2022-07-19T09:00:04;101664.66;;;31.35
48362;BMP280;34510;51.888;5.670;2022-07-19T09:02:06;101668.69;;;31.34
48362;BMP280;34510;51.888;5.670;2022-07-19T09:06:11;101658.16;;;31.65
48362;BMP280;34510;51.888;5.670;2022-07-19T09:08:16;101662.25;;;31.50
48362;BMP280;34510;51.888;5.670;2022-07-19T09:10:20;101661.53;;;31.67
48362;BMP280;34510;51.888;5.670;2022-07-19T09:12:22;101658.72;;;31.90
48362;BMP280;34510;51.888;5.670;2022-07-19T09:14:27;101661.69;;;32.07
48362;BMP280;34510;51.888;5.670;2022-07-19T09:16:58;101648.50;;;32.28
48362;BMP280;34510;51.888;5.670;2022-07-19T09:19:05;101655.97;;;32.38
48362;BMP280;34510;51.888;5.670;2022-07-19T09:21:07;101650.69;;;32.31
48362;BMP280;34510;51.888;5.670;2022-07-19T09:23:09;101648.00;;;32.66
48362;BMP280;34510;51.888;5.670;2022-07-19T09:25:11;101643.56;;;32.60
48362;BMP280;34510;51.888;5.670;2022-07-19T09:27:18;101653.91;;;32.69
48362;BMP280;34510;51.888;5.670;2022-07-19T09:29:20;101641.81;;;32.81
48362;BMP280;34510;51.888;5.670;2022-07-19T09:31:26;101650.78;;;32.88
48362;BMP280;34510;51.888;5.670;2022-07-19T09:33:30;101644.22;;;33.05
48362;BMP280;34510;51.888;5.670;2022-07-19T09:36:22;101641.16;;;33.01
48362;BMP280;34510;51.888;5.670;2022-07-19T09:38:14;101644.03;;;33.01
48362;BMP280;34510;51.888;5.670;2022-07-19T09:40:17;101646.06;;;33.09
48362;BMP280;34510;51.888;5.670;2022-07-19T09:42:43;101646.13;;;33.27
48362;BMP280;34510;51.888;5.670;2022-07-19T09:44:45;101633.97;;;33.30
48362;BMP280;34510;51.888;5.670;2022-07-19T09:46:47;101640.22;;;33.49
48362;BMP280;34510;51.888;5.670;2022-07-19T09:48:50;101638.53;;;33.57
48362;BMP280;34510;51.888;5.670;2022-07-19T09:50:53;101627.84;;;33.75
48362;BMP280;34510;51.888;5.670;2022-07-19T09:52:57;101635.28;;;33.67
48362;BMP280;34510;51.888;5.670;2022-07-19T09:55:02;101625.13;;;33.78
48362;BMP280;34510;51.888;5.670;2022-07-19T09:57:06;101632.06;;;33.77
48362;BMP280;34510;51.888;5.670;2022-07-19T09:59:09;101629.91;;;33.83
48362;BMP280;34510;51.888;5.670;2022-07-19T10:01:11;101631.41;;;33.97
48362;BMP280;34510;51.888;5.670;2022-07-19T10:03:13;101629.00;;;34.08
48362;BMP280;34510;51.888;5.670;2022-07-19T10:05:15;101628.16;;;34.08
48362;BMP280;34510;51.888;5.670;2022-07-19T10:07:18;101618.28;;;34.17
48362;BMP280;34510;51.888;5.670;2022-07-19T10:09:21;101622.81;;;34.36
48362;BMP280;34510;51.888;5.670;2022-07-19T10:11:31;101627.63;;;34.61
48362;BMP280;34510;51.888;5.670;2022-07-19T10:13:33;101629.16;;;34.58
48362;BMP280;34510;51.888;5.670;2022-07-19T10:15:37;101623.34;;;34.67
48362;BMP280;34510;51.888;5.670;2022-07-19T10:17:48;101618.88;;;34.49
48362;BMP280;34510;51.888;5.670;2022-07-19T10:19:53;101616.84;;;34.49
48362;BMP280;34510;51.888;5.670;2022-07-19T10:21:55;101623.75;;;34.57
48362;BMP280;34510;51.888;5.670;2022-07-19T10:23:57;101615.22;;;34.69
48362;BMP280;34510;51.888;5.670;2022-07-19T10:25:59;101610.00;;;34.92
48362;BMP280;34510;51.888;5.670;2022-07-19T10:28:01;101615.63;;;35.09
48362;BMP280;34510;51.888;5.670;2022-07-19T10:32:14;101614.47;;;35.31
48362;BMP280;34510;51.888;5.670;2022-07-19T10:34:22;101608.69;;;35.31
48362;BMP280;34510;51.888;5.670;2022-07-19T10:36:32;101602.75;;;35.36
48362;BMP280;34510;51.888;5.670;2022-07-19T10:38:34;101593.78;;;35.29
48362;BMP280;34510;51.888;5.670;2022-07-19T10:43:05;101584.97;;;35.34
48362;BMP280;34510;51.888;5.670;2022-07-19T10:45:09;101590.72;;;35.34
48362;BMP280;34510;51.888;5.670;2022-07-19T10:47:11;101581.91;;;35.51
48362;BMP280;34510;51.888;5.670;2022-07-19T10:49:46;101576.44;;;35.71
48362;BMP280;34510;51.888;5.670;2022-07-19T10:51:48;101577.75;;;35.73
48362;BMP280;34510;51.888;5.670;2022-07-19T10:56:23;101583.41;;;35.91
48362;BMP280;34510;51.888;5.670;2022-07-19T10:58:26;101576.81;;;36.02
48362;BMP280;34510;51.888;5.670;2022-07-19T11:00:30;101577.53;;;36.11
48362;BMP280;34510;51.888;5.670;2022-07-19T11:02:32;101574.41;;;36.16
48362;BMP280;34510;51.888;5.670;2022-07-19T11:04:45;101578.00;;;36.01
48362;BMP280;34510;51.888;5.670;2022-07-19T11:06:47;101572.59;;;36.24
48362;BMP280;34510;51.888;5.670;2022-07-19T11:08:51;101571.75;;;36.11
48362;BMP280;34510;51.888;5.670;2022-07-19T11:13:15;101566.75;;;36.33
48362;BMP280;34510;51.888;5.670;2022-07-19T11:15:17;101562.66;;;36.34
48362;BMP280;34510;51.888;5.670;2022-07-19T11:17:23;101568.06;;;36.35
48362;BMP280;34510;51.888;5.670;2022-07-19T11:19:25;101558.84;;;36.42
48362;BMP280;34510;51.888;5.670;2022-07-19T11:21:30;101553.53;;;36.56
48362;BMP280;34510;51.888;5.670;2022-07-19T11:23:38;101554.59;;;36.64
48362;BMP280;34510;51.888;5.670;2022-07-19T11:25:41;101554.72;;;36.67
48362;BMP280;34510;51.888;5.670;2022-07-19T11:27:44;101546.06;;;36.55
48362;BMP280;34510;51.888;5.670;2022-07-19T11:30:00;101538.09;;;36.89
48362;BMP280;34510;51.888;5.670;2022-07-19T11:32:02;101541.59;;;36.82
48362;BMP280;34510;51.888;5.670;2022-07-19T11:34:11;101537.03;;;36.57
48362;BMP280;34510;51.888;5.670;2022-07-19T11:36:14;101537.59;;;36.87
48362;BMP280;34510;51.888;5.670;2022-07-19T11:38:18;101532.00;;;37.06
48362;BMP280;34510;51.888;5.670;2022-07-19T11:40:22;101534.66;;;37.11
48362;BMP280;34510;51.888;5.670;2022-07-19T11:42:32;101533.09;;;37.01
48362;BMP280;34510;51.888;5.670;2022-07-19T11:44:54;101544.59;;;36.86
48362;BMP280;34510;51.888;5.670;2022-07-19T11:47:01;101534.94;;;36.94
48362;BMP280;34510;51.888;5.670;2022-07-19T11:49:05;101539.25;;;37.12
48362;BMP280;34510;51.888;5.670;2022-07-19T11:51:09;101537.28;;;37.28